createdAt,value
2023-04-07T00:00:07.944Z,99305.00
2023-04-07T00:01:07.730Z,99300.00
2023-04-07T00:02:07.879Z,99300.00
2023-04-07T00:03:07.942Z,99298.00
2023-04-07T00:04:07.961Z,99301.00
2023-04-07T00:05:07.856Z,99297.00
2023-04-07T00:06:07.827Z,99297.00
2023-04-07T00:07:07.800Z,99292.00
2023-04-07T00:08:07.834Z,99294.00
2023-04-07T00:09:07.829Z,99297.00
2023-04-07T00:10:07.801Z,99299.00
2023-04-07T00:11:07.827Z,99296.00
2023-04-07T00:12:07.870Z,99299.00
2023-04-07T00:13:07.900Z,99298.00
2023-04-07T00:14:07.879Z,99297.00
2023-04-07T00:15:07.903Z,99300.00
2023-04-07T00:16:08.017Z,99303.00
2023-04-07T00:17:07.927Z,99299.00
2023-04-07T00:18:08.055Z,99299.00
2023-04-07T00:19:07.956Z,99298.00
2023-04-07T00:20:07.973Z,99304.00
2023-04-07T00:21:08.000Z,99296.00
2023-04-07T00:22:08.015Z,99300.00
2023-04-07T00:23:07.988Z,99302.00
2023-04-07T00:24:08.017Z,99298.00
2023-04-07T00:25:07.997Z,99301.00
2023-04-07T00:26:08.018Z,99297.00
2023-04-07T00:27:08.032Z,99296.00
2023-04-07T00:28:08.042Z,99296.00
2023-04-07T00:29:08.080Z,99297.00
2023-04-07T00:30:08.072Z,99294.00
2023-04-07T00:31:08.155Z,99297.00
2023-04-07T00:32:08.114Z,99294.00
2023-04-07T00:33:09.722Z,99291.00
2023-04-07T00:34:08.131Z,99297.00
2023-04-07T00:35:08.158Z,99294.00
2023-04-07T00:36:08.254Z,99291.00
2023-04-07T00:37:08.191Z,99295.00
2023-04-07T00:38:08.230Z,99290.00
2023-04-07T00:39:08.210Z,99293.00
2023-04-07T00:40:08.223Z,99289.00
2023-04-07T00:41:08.244Z,99290.00
2023-04-07T00:42:08.280Z,99295.00
2023-04-07T00:43:08.291Z,99288.00
2023-04-07T00:44:08.311Z,99287.00
2023-04-07T00:45:08.330Z,99288.00
2023-04-07T00:46:08.440Z,99285.00
2023-04-07T00:47:08.370Z,99287.00
2023-04-07T00:48:08.384Z,99287.00
2023-04-07T00:49:11.054Z,99285.00
2023-04-07T00:50:08.414Z,99284.00
2023-04-07T00:51:08.429Z,99284.00
2023-04-07T00:52:08.461Z,99279.00
2023-04-07T00:53:08.503Z,99281.00
2023-04-07T00:54:08.517Z,99282.00
2023-04-07T00:55:08.493Z,99280.00
2023-04-07T00:56:08.510Z,99280.00
2023-04-07T00:57:08.519Z,99280.00
2023-04-07T00:58:08.594Z,99274.00
2023-04-07T00:59:08.575Z,99277.00
2023-04-07T01:00:08.589Z,99273.00
2023-04-07T01:01:08.605Z,99272.00
2023-04-07T01:02:08.737Z,99269.00
2023-04-07T01:03:08.973Z,99268.00
2023-04-07T01:04:08.849Z,99266.00
2023-04-07T01:05:08.757Z,99262.00
2023-04-07T01:06:08.720Z,99265.00
2023-04-07T01:07:08.732Z,99261.00
2023-04-07T01:08:08.754Z,99262.00
2023-04-07T01:09:08.769Z,99264.00
2023-04-07T01:10:08.773Z,99262.00
2023-04-07T01:11:08.762Z,99261.00
2023-04-07T01:12:08.736Z,99257.00
2023-04-07T01:13:08.771Z,99259.00
2023-04-07T01:14:08.783Z,99250.00
2023-04-07T01:15:08.810Z,99253.00
2023-04-07T01:16:08.843Z,99255.00
2023-04-07T01:17:08.794Z,99251.00
2023-04-07T01:18:08.820Z,99253.00
2023-04-07T01:19:08.857Z,99248.00
2023-04-07T01:20:08.853Z,99252.00
2023-04-07T01:21:08.848Z,99249.00
2023-04-07T01:22:08.832Z,99249.00
2023-04-07T01:23:08.855Z,99246.00
2023-04-07T01:24:08.884Z,99245.00
2023-04-07T01:25:08.896Z,99248.00
2023-04-07T01:26:08.950Z,99247.00
2023-04-07T01:27:08.917Z,99243.00
2023-04-07T01:28:08.936Z,99241.00
2023-04-07T01:29:08.965Z,99245.00
2023-04-07T01:30:08.986Z,99245.00
2023-04-07T01:31:09.001Z,99243.00
2023-04-07T01:32:09.081Z,99245.00
2023-04-07T01:33:09.067Z,99244.00
2023-04-07T01:34:09.053Z,99246.00
2023-04-07T01:35:09.061Z,99243.00
2023-04-07T01:36:09.082Z,99240.00
2023-04-07T01:37:09.182Z,99240.00
2023-04-07T01:38:09.191Z,99240.00
2023-04-07T01:39:09.062Z,99235.00
2023-04-07T01:40:09.083Z,99234.00
2023-04-07T01:41:09.069Z,99234.00
2023-04-07T01:42:09.120Z,99237.00
2023-04-07T01:43:09.090Z,99236.00
2023-04-07T01:44:09.101Z,99234.00
2023-04-07T01:45:09.128Z,99236.00
2023-04-07T01:46:09.154Z,99242.00
2023-04-07T01:47:09.205Z,99240.00
2023-04-07T01:48:09.476Z,99234.00
2023-04-07T01:49:09.216Z,99237.00
2023-04-07T01:50:09.325Z,99236.00
2023-04-07T01:51:09.322Z,99238.00
2023-04-07T01:52:09.257Z,99236.00
2023-04-07T01:53:09.269Z,99233.00
2023-04-07T01:54:09.291Z,99233.00
2023-04-07T01:55:09.306Z,99235.00
2023-04-07T01:56:09.328Z,99238.00
2023-04-07T01:57:09.325Z,99235.00
2023-04-07T01:58:09.344Z,99235.00
2023-04-07T01:59:09.304Z,99236.00
2023-04-07T02:00:09.318Z,99240.00
2023-04-07T02:01:09.374Z,99230.00
2023-04-07T02:02:09.411Z,99235.00
2023-04-07T02:03:09.517Z,99236.00
2023-04-07T02:04:09.410Z,99235.00
2023-04-07T02:05:09.396Z,99234.00
2023-04-07T02:06:09.415Z,99232.00
2023-04-07T02:07:09.435Z,99230.00
2023-04-07T02:08:09.452Z,99231.00
2023-04-07T02:09:09.480Z,99231.00
2023-04-07T02:10:09.506Z,99230.00
2023-04-07T02:11:09.545Z,99230.00
2023-04-07T02:12:09.521Z,99227.00
2023-04-07T02:13:09.542Z,99229.00
2023-04-07T02:14:09.577Z,99230.00
2023-04-07T02:15:09.542Z,99230.00
2023-04-07T02:16:09.550Z,99229.00
2023-04-07T02:17:09.541Z,99224.00
2023-04-07T02:18:09.555Z,99228.00
2023-04-07T02:19:09.583Z,99226.00
2023-04-07T02:20:09.615Z,99226.00
2023-04-07T02:21:09.654Z,99223.00
2023-04-07T02:22:09.619Z,99221.00
2023-04-07T02:23:09.636Z,99221.00
2023-04-07T02:24:09.657Z,99217.00
2023-04-07T02:25:09.669Z,99220.00
2023-04-07T02:26:09.701Z,99219.00
2023-04-07T02:27:09.723Z,99217.00
2023-04-07T02:28:09.739Z,99218.00
2023-04-07T02:29:09.762Z,99222.00
2023-04-07T02:30:09.816Z,99217.00
2023-04-07T02:31:09.798Z,99218.00
2023-04-07T02:32:09.906Z,99217.00
2023-04-07T02:33:09.817Z,99213.00
2023-04-07T02:34:09.838Z,99218.00
2023-04-07T02:35:09.824Z,99213.00
2023-04-07T02:36:09.866Z,99211.00
2023-04-07T02:37:09.894Z,99212.00
2023-04-07T02:38:09.869Z,99212.00
2023-04-07T02:39:09.846Z,99211.00
2023-04-07T02:40:09.881Z,99212.00
2023-04-07T02:41:09.904Z,99211.00
2023-04-07T02:42:10.150Z,99211.00
2023-04-07T02:43:09.935Z,99209.00
2023-04-07T02:44:09.923Z,99204.00
2023-04-07T02:45:09.937Z,99208.00
2023-04-07T02:46:10.079Z,99203.00
2023-04-07T02:47:09.945Z,99206.00
2023-04-07T02:48:09.971Z,99206.00
2023-04-07T02:49:09.992Z,99200.00
2023-04-07T02:50:10.029Z,99201.00
2023-04-07T02:51:10.079Z,99202.00
2023-04-07T02:52:10.048Z,99201.00
2023-04-07T02:53:10.065Z,99199.00
2023-04-07T02:54:10.075Z,99201.00
2023-04-07T02:55:10.101Z,99198.00
2023-04-07T02:56:10.121Z,99197.00
2023-04-07T02:57:10.131Z,99198.00
2023-04-07T02:58:10.384Z,99197.00
2023-04-07T02:59:10.176Z,99195.00
2023-04-07T03:00:10.203Z,99197.00
2023-04-07T03:01:10.236Z,99188.00
2023-04-07T03:02:10.395Z,99198.00
2023-04-07T03:03:10.373Z,99192.00
2023-04-07T03:04:10.387Z,99192.00
2023-04-07T03:05:10.244Z,99194.00
2023-04-07T03:06:10.321Z,99189.00
2023-04-07T03:07:10.290Z,99190.00
2023-04-07T03:08:12.705Z,99192.00
2023-04-07T03:09:10.305Z,99188.00
2023-04-07T03:10:10.572Z,99193.00
2023-04-07T03:11:10.340Z,99189.00
2023-04-07T03:12:10.318Z,99188.00
2023-04-07T03:13:10.341Z,99187.00
2023-04-07T03:14:10.355Z,99187.00
2023-04-07T03:15:10.376Z,99187.00
2023-04-07T03:16:10.409Z,99187.00
2023-04-07T03:17:10.471Z,99182.00
2023-04-07T03:18:10.488Z,99184.00
2023-04-07T03:19:10.486Z,99181.00
2023-04-07T03:20:10.479Z,99181.00
2023-04-07T03:21:10.480Z,99172.00
2023-04-07T03:22:10.492Z,99177.00
2023-04-07T03:23:10.523Z,99177.00
2023-04-07T03:24:10.532Z,99179.00
2023-04-07T03:25:10.547Z,99178.00
2023-04-07T03:26:10.578Z,99173.00
2023-04-07T03:27:10.555Z,99176.00
2023-04-07T03:28:10.801Z,99175.00
2023-04-07T03:29:10.592Z,99170.00
2023-04-07T03:30:10.620Z,99174.00
2023-04-07T03:31:10.725Z,99170.00
2023-04-07T03:32:10.650Z,99172.00
2023-04-07T03:33:10.678Z,99170.00
2023-04-07T03:34:10.728Z,99172.00
2023-04-07T03:35:10.696Z,99172.00
2023-04-07T03:36:10.776Z,99169.00
2023-04-07T03:37:10.745Z,99174.00
2023-04-07T03:38:10.766Z,99174.00
2023-04-07T03:39:10.781Z,99173.00
2023-04-07T03:40:10.802Z,99169.00
2023-04-07T03:41:10.826Z,99173.00
2023-04-07T03:42:10.837Z,99171.00
2023-04-07T03:43:10.850Z,99172.00
2023-04-07T03:44:10.876Z,99171.00
2023-04-07T03:45:10.889Z,99172.00
2023-04-07T03:46:11.005Z,99172.00
2023-04-07T03:47:10.914Z,99168.00
2023-04-07T03:48:10.900Z,99166.00
2023-04-07T03:49:10.904Z,99172.00
2023-04-07T03:50:10.937Z,99170.00
2023-04-07T03:51:10.920Z,99170.00
2023-04-07T03:52:10.896Z,99164.00
2023-04-07T03:53:10.930Z,99164.00
2023-04-07T03:54:10.948Z,99161.00
2023-04-07T03:55:10.978Z,99159.00
2023-04-07T03:56:11.006Z,99162.00
2023-04-07T03:57:11.022Z,99161.00
2023-04-07T03:58:11.045Z,99158.00
2023-04-07T03:59:11.065Z,99163.00
2023-04-07T04:00:11.088Z,99158.00
2023-04-07T04:01:11.109Z,99159.00
2023-04-07T04:02:11.149Z,99162.00
2023-04-07T04:03:11.197Z,99163.00
2023-04-07T04:04:11.305Z,99166.00
2023-04-07T04:05:11.111Z,99160.00
2023-04-07T04:06:11.175Z,99165.00
2023-04-07T04:07:11.140Z,99166.00
2023-04-07T04:08:11.177Z,99163.00
2023-04-07T04:09:11.153Z,99165.00
2023-04-07T04:10:11.178Z,99164.00
2023-04-07T04:11:11.218Z,99161.00
2023-04-07T04:12:11.198Z,99159.00
2023-04-07T04:13:11.216Z,99158.00
2023-04-07T04:14:11.238Z,99154.00
2023-04-07T04:15:11.251Z,99160.00
2023-04-07T04:16:13.851Z,99161.00
2023-04-07T04:17:11.251Z,99160.00
2023-04-07T04:18:11.255Z,99160.00
2023-04-07T04:19:11.281Z,99157.00
2023-04-07T04:20:11.298Z,99162.00
2023-04-07T04:21:11.336Z,99159.00
2023-04-07T04:22:11.398Z,99159.00
2023-04-07T04:23:11.326Z,99160.00
2023-04-07T04:24:11.337Z,99160.00
2023-04-07T04:25:11.972Z,99162.00
2023-04-07T04:26:11.361Z,99161.00
2023-04-07T04:27:11.393Z,99155.00
2023-04-07T04:28:11.408Z,99158.00
2023-04-07T04:29:11.423Z,99155.00
2023-04-07T04:30:11.452Z,99156.00
2023-04-07T04:31:11.526Z,99158.00
2023-04-07T04:32:11.465Z,99157.00
2023-04-07T04:33:11.480Z,99157.00
2023-04-07T04:34:11.511Z,99151.00
2023-04-07T04:35:11.492Z,99156.00
2023-04-07T04:36:11.502Z,99153.00
2023-04-07T04:37:11.480Z,99157.00
2023-04-07T04:38:11.523Z,99155.00
2023-04-07T04:39:11.497Z,99160.00
2023-04-07T04:40:11.527Z,99154.00
2023-04-07T04:41:11.556Z,99161.00
2023-04-07T04:42:11.575Z,99158.00
2023-04-07T04:43:11.593Z,99161.00
2023-04-07T04:44:11.646Z,99161.00
2023-04-07T04:45:11.606Z,99156.00
2023-04-07T04:46:11.630Z,99161.00
2023-04-07T04:47:11.668Z,99161.00
2023-04-07T04:48:11.655Z,99160.00
2023-04-07T04:49:11.637Z,99157.00
2023-04-07T04:50:11.652Z,99159.00
2023-04-07T04:51:11.692Z,99161.00
2023-04-07T04:52:11.692Z,99160.00
2023-04-07T04:53:11.672Z,99161.00
2023-04-07T04:54:11.709Z,99161.00
2023-04-07T04:55:14.015Z,99162.00
2023-04-07T04:56:11.694Z,99160.00
2023-04-07T04:57:11.713Z,99162.00
2023-04-07T04:58:11.722Z,99161.00
2023-04-07T04:59:11.742Z,99154.00
2023-04-07T05:00:11.784Z,99156.00
2023-04-07T05:02:37.956Z,99158.00
2023-04-07T05:03:37.827Z,99151.00
2023-04-07T05:04:37.823Z,99152.00
2023-04-07T05:05:37.712Z,99153.00
2023-04-07T05:06:37.733Z,99150.00
2023-04-07T05:07:37.739Z,99155.00
2023-04-07T05:08:37.768Z,99155.00
2023-04-07T05:09:37.782Z,99149.00
2023-04-07T05:10:37.771Z,99156.00
2023-04-07T05:11:37.789Z,99154.00
2023-04-07T05:12:37.831Z,99149.00
2023-04-07T05:13:37.855Z,99158.00
2023-04-07T05:14:37.881Z,99154.00
2023-04-07T05:15:37.910Z,99158.00
2023-04-07T05:16:37.996Z,99153.00
2023-04-07T05:17:38.011Z,99160.00
2023-04-07T05:18:37.948Z,99155.00
2023-04-07T05:19:37.972Z,99154.00
2023-04-07T05:20:37.997Z,99155.00
2023-04-07T05:21:38.047Z,99155.00
2023-04-07T05:22:38.037Z,99158.00
2023-04-07T05:23:38.024Z,99155.00
2023-04-07T05:24:38.047Z,99157.00
2023-04-07T05:25:38.098Z,99150.00
2023-04-07T05:26:38.085Z,99154.00
2023-04-07T05:27:38.119Z,99151.00
2023-04-07T05:28:38.111Z,99150.00
2023-04-07T05:29:38.132Z,99155.00
2023-04-07T05:30:38.152Z,99156.00
2023-04-07T05:31:38.198Z,99157.00
2023-04-07T05:32:38.242Z,99155.00
2023-04-07T05:33:38.211Z,99159.00
2023-04-07T05:34:38.236Z,99156.00
2023-04-07T05:35:38.251Z,99157.00
2023-04-07T05:36:38.269Z,99154.00
2023-04-07T05:37:38.295Z,99151.00
2023-04-07T05:38:38.310Z,99155.00
2023-04-07T05:39:38.571Z,99156.00
2023-04-07T05:40:38.591Z,99154.00
2023-04-07T05:41:38.409Z,99153.00
2023-04-07T05:42:38.408Z,99153.00
2023-04-07T05:43:38.424Z,99155.00
2023-04-07T05:44:38.447Z,99156.00
2023-04-07T05:45:38.520Z,99156.00
2023-04-07T05:46:38.500Z,99155.00
2023-04-07T05:47:38.556Z,99157.00
2023-04-07T05:48:38.531Z,99156.00
2023-04-07T05:49:38.554Z,99157.00
2023-04-07T05:50:38.584Z,99156.00
2023-04-07T05:51:38.827Z,99154.00
2023-04-07T05:52:38.666Z,99156.00
2023-04-07T05:53:38.644Z,99155.00
2023-04-07T05:54:38.667Z,99159.00
2023-04-07T05:55:38.692Z,99156.00
2023-04-07T05:56:38.711Z,99154.00
2023-04-07T05:57:38.782Z,99155.00
2023-04-07T05:58:38.722Z,99155.00
2023-04-07T05:59:38.745Z,99157.00
2023-04-07T06:00:38.762Z,99157.00
2023-04-07T06:01:38.980Z,99158.00
2023-04-07T06:02:39.055Z,99154.00
2023-04-07T06:03:39.099Z,99158.00
2023-04-07T06:04:38.853Z,99162.00
2023-04-07T06:05:38.933Z,99160.00
2023-04-07T06:06:38.873Z,99165.00
2023-04-07T06:07:38.915Z,99161.00
2023-04-07T06:08:38.900Z,99161.00
2023-04-07T06:09:38.911Z,99159.00
2023-04-07T06:10:38.895Z,99160.00
2023-04-07T06:11:38.920Z,99162.00
2023-04-07T06:12:38.951Z,99163.00
2023-04-07T06:13:39.002Z,99164.00
2023-04-07T06:14:39.002Z,99158.00
2023-04-07T06:15:38.996Z,99157.00
2023-04-07T06:16:39.052Z,99160.00
2023-04-07T06:17:39.068Z,99156.00
2023-04-07T06:18:39.036Z,99159.00
2023-04-07T06:19:39.020Z,99155.00
2023-04-07T06:20:39.023Z,99161.00
2023-04-07T06:21:39.004Z,99158.00
2023-04-07T06:22:39.041Z,99160.00
2023-04-07T06:23:39.015Z,99164.00
2023-04-07T06:24:39.028Z,99161.00
2023-04-07T06:25:39.026Z,99159.00
2023-04-07T06:26:39.045Z,99161.00
2023-04-07T06:27:39.090Z,99161.00
2023-04-07T06:28:39.073Z,99161.00
2023-04-07T06:29:39.115Z,99161.00
2023-04-07T06:30:39.108Z,99159.00
2023-04-07T06:31:39.106Z,99162.00
2023-04-07T06:32:39.183Z,99163.00
2023-04-07T06:33:39.134Z,99166.00
2023-04-07T06:34:39.156Z,99160.00
2023-04-07T06:35:39.180Z,99163.00
2023-04-07T06:36:39.216Z,99164.00
2023-04-07T06:37:39.232Z,99168.00
2023-04-07T06:38:39.219Z,99165.00
2023-04-07T06:39:39.241Z,99167.00
2023-04-07T06:40:39.280Z,99166.00
2023-04-07T06:41:39.494Z,99164.00
2023-04-07T06:42:39.390Z,99166.00
2023-04-07T06:43:39.582Z,99162.00
2023-04-07T06:44:39.384Z,99164.00
2023-04-07T06:45:39.412Z,99164.00
2023-04-07T06:46:39.456Z,99160.00
2023-04-07T06:47:39.466Z,99164.00
2023-04-07T06:48:39.405Z,99165.00
2023-04-07T06:49:39.442Z,99163.00
2023-04-07T06:50:39.429Z,99166.00
2023-04-07T06:51:39.447Z,99163.00
2023-04-07T06:52:39.489Z,99164.00
2023-04-07T06:53:39.468Z,99162.00
2023-04-07T06:54:39.494Z,99160.00
2023-04-07T06:55:39.744Z,99160.00
2023-04-07T06:56:39.538Z,99162.00
2023-04-07T06:57:39.593Z,99160.00
2023-04-07T06:58:39.576Z,99159.00
2023-04-07T06:59:39.593Z,99159.00
2023-04-07T07:00:39.629Z,99162.00
2023-04-07T07:01:40.045Z,99154.00
2023-04-07T07:02:39.859Z,99159.00
2023-04-07T07:03:39.720Z,99155.00
2023-04-07T07:04:39.645Z,99155.00
2023-04-07T07:05:39.675Z,99157.00
2023-04-07T07:06:39.696Z,99154.00
2023-04-07T07:07:39.740Z,99155.00
2023-04-07T07:08:39.717Z,99158.00
2023-04-07T07:09:39.740Z,99155.00
2023-04-07T07:10:39.772Z,99153.00
2023-04-07T07:11:39.805Z,99158.00
2023-04-07T07:12:39.840Z,99157.00
2023-04-07T07:13:39.829Z,99155.00
2023-04-07T07:14:39.823Z,99156.00
2023-04-07T07:15:39.891Z,99155.00
2023-04-07T07:16:39.867Z,99153.00
2023-04-07T07:17:40.007Z,99156.00
2023-04-07T07:18:40.109Z,99157.00
2023-04-07T07:19:40.130Z,99155.00
2023-04-07T07:20:39.924Z,99157.00
2023-04-07T07:21:39.950Z,99156.00
2023-04-07T07:22:39.950Z,99155.00
2023-04-07T07:23:39.969Z,99159.00
2023-04-07T07:24:39.991Z,99161.00
2023-04-07T07:25:40.006Z,99159.00
2023-04-07T07:26:40.038Z,99158.00
2023-04-07T07:27:40.071Z,99161.00
2023-04-07T07:28:40.100Z,99159.00
2023-04-07T07:29:40.118Z,99165.00
2023-04-07T07:30:40.108Z,99162.00
2023-04-07T07:31:40.431Z,99165.00
2023-04-07T07:32:40.165Z,99163.00
2023-04-07T07:33:40.280Z,99161.00
2023-04-07T07:34:40.145Z,99161.00
2023-04-07T07:35:40.191Z,99163.00
2023-04-07T07:36:40.199Z,99164.00
2023-04-07T07:37:40.225Z,99158.00
2023-04-07T07:38:40.240Z,99164.00
2023-04-07T07:39:40.276Z,99163.00
2023-04-07T07:40:40.280Z,99164.00
2023-04-07T07:41:40.266Z,99163.00
2023-04-07T07:42:40.285Z,99164.00
2023-04-07T07:43:40.305Z,99164.00
2023-04-07T07:44:40.340Z,99165.00
2023-04-07T07:45:40.347Z,99166.00
2023-04-07T07:46:40.414Z,99168.00
2023-04-07T07:47:40.417Z,99169.00
2023-04-07T07:48:40.383Z,99165.00
2023-04-07T07:49:40.428Z,99164.00
2023-04-07T07:50:40.433Z,99168.00
2023-04-07T07:51:40.516Z,99168.00
2023-04-07T07:52:40.441Z,99166.00
2023-04-07T07:57:58.220Z,99171.00
2023-04-07T08:00:24.149Z,99169.00
2023-04-07T08:01:24.094Z,99172.00
2023-04-07T08:02:24.160Z,99176.00
2023-04-07T08:03:24.207Z,99173.00
2023-04-07T08:04:24.257Z,99175.00
2023-04-07T08:05:24.166Z,99174.00
2023-04-07T08:06:24.159Z,99173.00
2023-04-07T08:07:24.157Z,99177.00
2023-04-07T08:08:24.191Z,99175.00
2023-04-07T08:09:24.224Z,99180.00
2023-04-07T08:10:24.255Z,99177.00
2023-04-07T08:11:24.250Z,99184.00
2023-04-07T08:12:24.275Z,99180.00
2023-04-07T08:13:24.314Z,99178.00
2023-04-07T08:14:24.291Z,99183.00
2023-04-07T08:15:24.541Z,99179.00
2023-04-07T08:16:24.360Z,99182.00
2023-04-07T08:17:24.420Z,99183.00
2023-04-07T08:18:24.377Z,99185.00
2023-04-07T08:19:24.400Z,99185.00
2023-04-07T08:20:24.471Z,99188.00
2023-04-07T08:21:24.482Z,99184.00
2023-04-07T08:22:24.462Z,99187.00
2023-04-07T08:23:24.499Z,99190.00
2023-04-07T08:24:24.480Z,99189.00
2023-04-07T08:25:24.509Z,99191.00
2023-04-07T08:26:24.526Z,99187.00
2023-04-07T08:27:24.558Z,99189.00
2023-04-07T08:28:25.226Z,99185.00
2023-04-07T08:29:24.572Z,99189.00
2023-04-07T08:30:24.658Z,99189.00
2023-04-07T08:31:24.700Z,99192.00
2023-04-07T08:32:24.691Z,99186.00
2023-04-07T08:33:24.646Z,99187.00
2023-04-07T08:34:24.678Z,99187.00
2023-04-07T08:35:24.699Z,99185.00
2023-04-07T08:36:24.719Z,99187.00
2023-04-07T08:37:24.949Z,99186.00
2023-04-07T08:38:24.769Z,99188.00
2023-04-07T08:39:24.763Z,99191.00
2023-04-07T08:40:24.747Z,99188.00
2023-04-07T08:41:24.743Z,99189.00
2023-04-07T08:42:24.726Z,99187.00
2023-04-07T08:43:24.729Z,99186.00
2023-04-07T08:44:24.752Z,99189.00
2023-04-07T08:45:24.773Z,99187.00
2023-04-07T08:46:24.920Z,99187.00
2023-04-07T08:47:24.851Z,99190.00
2023-04-07T08:48:24.816Z,99190.00
2023-04-07T08:49:24.831Z,99188.00
2023-04-07T08:50:24.865Z,99192.00
2023-04-07T08:51:24.909Z,99190.00
2023-04-07T08:52:24.914Z,99194.00
2023-04-07T08:53:24.971Z,99193.00
2023-04-07T08:54:24.952Z,99192.00
2023-04-07T08:55:24.978Z,99190.00
2023-04-07T08:56:25.000Z,99192.00
2023-04-07T08:57:25.020Z,99193.00
2023-04-07T08:58:25.071Z,99191.00
2023-04-07T08:59:25.047Z,99188.00
2023-04-07T09:00:25.085Z,99187.00
2023-04-07T09:01:25.135Z,99190.00
2023-04-07T09:02:25.274Z,99189.00
2023-04-07T09:03:25.227Z,99189.00
2023-04-07T09:04:25.184Z,99188.00
2023-04-07T09:05:25.222Z,99192.00
2023-04-07T09:06:25.252Z,99192.00
2023-04-07T09:07:25.279Z,99192.00
2023-04-07T09:08:25.320Z,99193.00
2023-04-07T09:09:25.321Z,99193.00
2023-04-07T09:10:25.292Z,99191.00
2023-04-07T09:11:25.316Z,99193.00
2023-04-07T09:12:25.569Z,99193.00
2023-04-07T09:13:25.360Z,99194.00
2023-04-07T09:14:25.349Z,99192.00
2023-04-07T09:15:25.380Z,99194.00
2023-04-07T09:16:25.451Z,99193.00
2023-04-07T09:17:25.418Z,99191.00
2023-04-07T09:18:25.412Z,99191.00
2023-04-07T09:19:25.434Z,99195.00
2023-04-07T09:20:25.472Z,99193.00
2023-04-07T09:21:25.517Z,99190.00
2023-04-07T09:22:25.499Z,99188.00
2023-04-07T09:23:25.530Z,99192.00
2023-04-07T09:24:25.573Z,99191.00
2023-04-07T09:25:25.591Z,99189.00
2023-04-07T09:26:25.612Z,99186.00
2023-04-07T09:27:25.587Z,99187.00
2023-04-07T09:28:25.591Z,99182.00
2023-04-07T09:29:25.577Z,99183.00
2023-04-07T09:30:25.601Z,99183.00
2023-04-07T09:31:25.658Z,99183.00
2023-04-07T09:32:25.686Z,99184.00
2023-04-07T09:33:25.684Z,99187.00
2023-04-07T09:34:25.714Z,99188.00
2023-04-07T09:35:25.712Z,99188.00
2023-04-07T09:36:25.736Z,99186.00
2023-04-07T09:37:25.766Z,99186.00
2023-04-07T09:38:25.799Z,99191.00
2023-04-07T09:39:25.788Z,99189.00
2023-04-07T09:40:25.821Z,99188.00
2023-04-07T09:41:26.061Z,99187.00
2023-04-07T09:42:25.898Z,99185.00
2023-04-07T09:43:25.842Z,99187.00
2023-04-07T09:44:25.866Z,99185.00
2023-04-07T09:45:33.852Z,99185.00
2023-04-07T09:46:26.271Z,99185.00
2023-04-07T09:47:25.927Z,99178.00
2023-04-07T09:48:25.907Z,99178.00
2023-04-07T09:49:25.934Z,99179.00
2023-04-07T09:50:25.913Z,99179.00
2023-04-07T09:51:25.899Z,99177.00
2023-04-07T09:52:25.949Z,99174.00
2023-04-07T09:53:25.930Z,99175.00
2023-04-07T09:54:25.955Z,99174.00
2023-04-07T09:55:25.995Z,99177.00
2023-04-07T09:56:26.022Z,99174.00
2023-04-07T09:57:26.083Z,99171.00
2023-04-07T09:58:26.064Z,99180.00
2023-04-07T09:59:26.091Z,99175.00
2023-04-07T10:00:26.119Z,99175.00
2023-04-07T10:01:26.173Z,99180.00
2023-04-07T10:02:26.251Z,99176.00
2023-04-07T10:03:26.188Z,99178.00
2023-04-07T10:04:26.504Z,99181.00
2023-04-07T10:05:26.199Z,99176.00
2023-04-07T10:06:26.222Z,99173.00
2023-04-07T10:07:26.271Z,99181.00
2023-04-07T10:08:26.251Z,99183.00
2023-04-07T10:09:26.298Z,99187.00
2023-04-07T10:10:26.293Z,99184.00
2023-04-07T10:11:26.279Z,99187.00
2023-04-07T10:12:26.312Z,99187.00
2023-04-07T10:13:26.397Z,99185.00
2023-04-07T10:14:26.328Z,99189.00
2023-04-07T10:15:26.354Z,99188.00
2023-04-07T10:16:26.357Z,99187.00
2023-04-07T10:17:26.416Z,99188.00
2023-04-07T10:18:26.356Z,99190.00
2023-04-07T10:19:26.387Z,99180.00
2023-04-07T10:20:26.370Z,99188.00
2023-04-07T10:21:26.394Z,99187.00
2023-04-07T10:22:26.429Z,99189.00
2023-04-07T10:23:26.410Z,99188.00
2023-04-07T10:24:26.433Z,99189.00
2023-04-07T10:25:26.459Z,99188.00
2023-04-07T10:26:26.482Z,99183.00
2023-04-07T10:27:26.523Z,99190.00
2023-04-07T10:28:26.545Z,99187.00
2023-04-07T10:29:26.590Z,99189.00
2023-04-07T10:30:26.570Z,99188.00
2023-04-07T10:31:26.645Z,99188.00
2023-04-07T10:32:26.582Z,99187.00
2023-04-07T10:33:26.565Z,99184.00
2023-04-07T10:34:26.589Z,99185.00
2023-04-07T10:35:26.643Z,99192.00
2023-04-07T10:36:26.633Z,99183.00
2023-04-07T10:37:26.665Z,99186.00
2023-04-07T10:38:26.661Z,99188.00
2023-04-07T10:39:26.688Z,99188.00
2023-04-07T10:40:26.682Z,99188.00
2023-04-07T10:41:26.703Z,99192.00
2023-04-07T10:42:26.791Z,99185.00
2023-04-07T10:43:26.749Z,99187.00
2023-04-07T10:44:26.773Z,99184.00
2023-04-07T10:45:26.834Z,99186.00
2023-04-07T10:46:26.840Z,99182.00
2023-04-07T10:47:26.866Z,99182.00
2023-04-07T10:48:26.849Z,99183.00
2023-04-07T10:49:26.866Z,99180.00
2023-04-07T10:50:26.891Z,99182.00
2023-04-07T10:51:26.912Z,99181.00
2023-04-07T10:52:27.194Z,99180.00
2023-04-07T10:53:26.947Z,99182.00
2023-04-07T10:54:29.315Z,99182.00
2023-04-07T10:55:26.975Z,99181.00
2023-04-07T10:56:26.998Z,99180.00
2023-04-07T10:57:27.036Z,99182.00
2023-04-07T10:58:27.013Z,99183.00
2023-04-07T10:59:27.038Z,99184.00
2023-04-07T11:00:27.070Z,99181.00
2023-04-07T11:01:27.191Z,99186.00
2023-04-07T11:02:27.320Z,99186.00
2023-04-07T11:03:27.224Z,99183.00
2023-04-07T11:04:27.261Z,99182.00
2023-04-07T11:05:27.137Z,99184.00
2023-04-07T11:06:27.171Z,99186.00
2023-04-07T11:07:27.197Z,99183.00
2023-04-07T11:08:27.218Z,99184.00
2023-04-07T11:09:27.250Z,99188.00
2023-04-07T11:10:27.279Z,99188.00
2023-04-07T11:11:27.267Z,99187.00
2023-04-07T11:12:27.312Z,99185.00
2023-04-07T11:13:27.289Z,99185.00
2023-04-07T11:14:27.313Z,99187.00
2023-04-07T11:15:27.335Z,99181.00
2023-04-07T11:16:27.433Z,99185.00
2023-04-07T11:17:27.472Z,99188.00
2023-04-07T11:18:27.459Z,99184.00
2023-04-07T11:19:27.437Z,99186.00
2023-04-07T11:20:27.438Z,99184.00
2023-04-07T11:21:27.497Z,99184.00
2023-04-07T11:22:30.345Z,99187.00
2023-04-07T11:23:27.450Z,99183.00
2023-04-07T11:24:27.483Z,99184.00
2023-04-07T11:25:27.485Z,99187.00
2023-04-07T11:26:27.702Z,99183.00
2023-04-07T11:27:27.464Z,99188.00
2023-04-07T11:28:27.451Z,99191.00
2023-04-07T11:29:27.440Z,99188.00
2023-04-07T11:30:27.458Z,99185.00
2023-04-07T11:31:27.573Z,99185.00
2023-04-07T11:32:27.513Z,99183.00
2023-04-07T11:33:27.521Z,99183.00
2023-04-07T11:34:27.502Z,99185.00
2023-04-07T11:35:27.527Z,99183.00
2023-04-07T11:36:27.558Z,99184.00
2023-04-07T11:37:27.544Z,99184.00
2023-04-07T11:38:27.586Z,99180.00
2023-04-07T11:39:27.570Z,99179.00
2023-04-07T11:40:27.602Z,99187.00
2023-04-07T11:41:27.653Z,99180.00
2023-04-07T11:42:27.636Z,99183.00
2023-04-07T11:43:27.673Z,99182.00
2023-04-07T11:44:27.690Z,99186.00
2023-04-07T11:45:27.726Z,99186.00
2023-04-07T11:46:27.755Z,99189.00
2023-04-07T11:47:27.734Z,99185.00
2023-04-07T11:48:27.998Z,99194.00
2023-04-07T11:49:27.783Z,99195.00
2023-04-07T11:50:27.765Z,99193.00
2023-04-07T11:51:27.788Z,99195.00